• Join FlightAware (Why Join?)
  • Login
  • US Flag 
08:12PM EDT


 

Airport Tracker/Info


-or-


 

Live Flight TrackerFlight Track Log ✈ TYR920 ✈ 19-May-2013 ✈ LOWS / SZG - LOWW / VIE

Flight Track Log - Related Links

Times and Time Zones

All times are in EDT time to prevent confusion due to time zone crossing. See the TYR920 flight status page for this flight to view local times or setup timezone preferences in your user account.

Time Position Orientation Groundspeed Altitude Reporting Facility
EDT Latitude Longitude Course Direction KTS MPH feet Rate Location/Type
02:32AM 47.8455 13.5121 81° East  Level Estimated
02:33AM 47.8556 13.6138 81° East  Level Estimated
02:34AM 47.8657 13.7155 82° East  Level Estimated
02:35AM 47.8757 13.8173 82° East  Level Estimated
02:36AM 47.8856 13.9191 82° East  Level Estimated
02:37AM 47.8954 14.0209 82° East  Level Estimated
02:38AM 47.9051 14.1228 82° East  Level Estimated
02:39AM 47.9147 14.2247 82° East  Level Estimated
02:40AM 47.9242 14.3266 82° East  Level Estimated
02:41AM 47.9337 14.4286 82° East  Level Estimated
02:42AM 47.9430 14.5306 82° East  Level Estimated
02:43AM 47.9523 14.6327 82° East  Level Estimated
02:44AM 47.9614 14.7348 82° East  Level Estimated
02:45AM 47.9705 14.8369 82° East  Level Estimated
02:46AM 47.9795 14.9391 82° East  Level Estimated
02:47AM 47.9884 15.0413 83° East  Level Estimated
02:48AM 47.9972 15.1435 83° East  Level Estimated
02:49AM 48.0059 15.2458 83° East  Level Estimated
02:50AM 48.0145 15.3481 83° East  Level Estimated
02:51AM 48.0230 15.4504 83° East  Level Estimated
02:52AM 48.0315 15.5528 83° East  Level Estimated
02:53AM 48.0398 15.6552 83° East  Level Estimated
02:54AM 48.0481 15.7577 83° East  Level Estimated
02:55AM 48.0563 15.8601 83° East  Level Estimated
02:56AM 48.0644 15.9626 83° East  Level Estimated
02:57AM 48.0723 16.0652 83° East  Level Estimated
02:58AM 48.0802 16.1677 83° East  Level Estimated
02:59AM 48.0880 16.2703 83° East  Level Estimated
03:00AM 48.0957 16.3730 84° East  Level Estimated
03:01AM 48.1034 16.4756 84° East  Level Estimated
03:02AM 48.1103 16.5697 84° East  Level Estimated
03:03AM 48.1103 16.5697 146° Southeast  Level Estimated
03:04AM 48.1103 16.5697 146° Southeast  Level Estimated
03:05AM 48.1103 16.5697 146° Southeast  Level Estimated
03:06AM 48.1103 16.5697 146° Southeast  Level Estimated
03:07AM 48.1103 16.5697 146° Southeast  Level Estimated
03:08AM 48.1103 16.5697 146° Southeast  Level Estimated
03:09AM 48.1103 16.5697 146° Southeast  Level Estimated
03:10AM 48.1103 16.5697 146° Southeast  Level Estimated
03:11AM 48.1103 16.5697 146° Southeast  Level Estimated
03:12AM 48.1103 16.5697 146° Southeast  Level Estimated